Terminal Aerodrome Forecast
Issued by NWS

Home | Current Version | Previous Version | Text Only | Print | Product List | Glossary On
Versions: 1 2 3 4 5 6 7 8 9 10 11 12 13 14 15 16 17 18 19 20 21 22 23 24 25 26 27 28 29 30 31
000
FTUS44 KHGX 170945 AAC
TAFUTS
TAF AMD
KUTS 170945Z 1710/1806 19003KT P6SM SCT006 OVC250
      TEMPO 1710/1712 6SM BR BKN008
     FM171600 15004KT P6SM VCSH SCT030 SCT250
     FM171900 16006KT P6SM VCTS SCT040CB SCT100 BKN250
     FM180100 14006KT P6SM FEW040 BKN250=

USA.gov is the U.S. government's official web portal to all federal, state and local government web resources and services.